Terminal Aerodrome Forecast
Issued by NWS

Home | Current Version | Previous Version | Graphics & Text | Print | Product List | Glossary On
Versions: 1 2 3 4 5 6 7 8 9 10 11 12 13 14 15 16 17 18 19 20
064
FTUS43 KABR 250258 AAA
TAFMBG
TAF AMD
KMBG 250258Z 2503/2524 13019G26KT P6SM SKC
     FM251200 14011KT P6SM SCT200
     FM251400 25011KT P6SM SCT200
     FM252000 28015G24KT P6SM SCT200=

USA.gov is the U.S. government's official web portal to all federal, state and local government web resources and services.